createdAt,value
2022-12-23T00:00:30.036Z,93956.97
2022-12-23T00:02:57.286Z,93991.56
2022-12-23T00:05:24.545Z,94026.81
2022-12-23T00:07:51.257Z,94026.75
2022-12-23T00:10:18.264Z,93989.22
2022-12-23T00:13:03.500Z,93946.59
2022-12-23T00:15:30.270Z,93930.28
2022-12-23T00:17:57.350Z,93943.41
2022-12-23T00:20:24.456Z,93956.94
2022-12-23T00:23:06.259Z,93965.88
2022-12-23T00:25:41.421Z,93937.00
2022-12-23T00:28:12.445Z,93906.28
2022-12-23T00:30:51.178Z,93907.97
2022-12-23T00:33:20.603Z,93903.88
2022-12-23T00:35:48.080Z,93885.72
2022-12-23T00:38:15.206Z,93894.00
2022-12-23T00:41:00.703Z,93891.28
2022-12-23T00:43:27.730Z,93889.75
2022-12-23T00:45:55.145Z,93858.31
2022-12-23T00:48:40.704Z,93900.25
2022-12-23T00:51:07.539Z,93890.91
2022-12-23T00:53:34.260Z,93884.28
2022-12-23T00:56:00.991Z,93882.63
2022-12-23T00:58:28.126Z,93870.59
2022-12-23T01:01:14.593Z,93849.91
2022-12-23T01:03:59.954Z,93837.59
2022-12-23T01:06:26.630Z,93830.00
2022-12-23T01:08:53.811Z,93815.59
2022-12-23T01:11:21.057Z,93839.00
2022-12-23T01:13:48.201Z,93833.28
2022-12-23T01:16:17.630Z,93827.09
2022-12-23T01:18:44.930Z,93838.84
2022-12-23T01:21:14.214Z,93812.22
2022-12-23T01:23:41.143Z,93811.94
2022-12-23T01:26:09.267Z,93834.31
2022-12-23T01:28:36.431Z,93819.16
2022-12-23T01:31:05.611Z,93826.56
2022-12-23T01:33:33.664Z,93837.97
2022-12-23T01:36:06.542Z,93777.84
2022-12-23T01:38:34.590Z,93786.69
2022-12-23T01:41:02.426Z,93788.16
2022-12-23T01:43:50.432Z,93759.34
2022-12-23T01:46:17.523Z,93756.69
2022-12-23T01:48:49.371Z,93770.72
2022-12-23T01:51:29.162Z,93819.72
2022-12-23T01:54:01.248Z,93767.03
2022-12-23T01:56:34.750Z,93799.06
2022-12-23T01:59:07.573Z,93830.91
2022-12-23T02:01:53.226Z,93844.22
2022-12-23T02:04:24.453Z,93849.56
2022-12-23T02:07:10.693Z,93764.06
2022-12-23T02:09:40.484Z,93793.16
2022-12-23T02:12:55.758Z,93808.25
2022-12-23T02:16:01.037Z,93833.31
2022-12-23T02:18:47.632Z,93778.22
2022-12-23T02:21:20.649Z,93800.06
2022-12-23T02:24:33.976Z,93813.81
2022-12-23T02:27:37.409Z,93822.69
2022-12-23T02:30:25.088Z,93869.94
2022-12-23T02:33:14.723Z,93805.16
2022-12-23T02:35:48.453Z,93849.25
2022-12-23T02:38:26.645Z,93858.84
2022-12-23T02:41:17.610Z,93822.63
2022-12-23T02:44:11.351Z,93826.56
2022-12-23T02:46:47.512Z,93819.34
2022-12-23T02:49:25.973Z,93884.78
2022-12-23T02:51:56.111Z,93839.50
2022-12-23T02:54:32.449Z,93855.34
2022-12-23T02:57:03.318Z,93813.25
2022-12-23T02:59:36.509Z,93839.75
2022-12-23T03:02:03.431Z,93874.69
2022-12-23T03:04:30.321Z,93838.00
2022-12-23T03:07:04.337Z,93812.31
2022-12-23T03:09:43.067Z,93829.56
2022-12-23T03:12:43.967Z,93844.31
2022-12-23T03:15:33.470Z,93828.28
2022-12-23T03:18:12.492Z,93823.28
2022-12-23T03:21:10.347Z,93864.13
2022-12-23T03:23:53.625Z,93847.84
2022-12-23T03:26:29.000Z,93866.03
2022-12-23T03:28:59.228Z,93832.31
2022-12-23T03:31:30.174Z,93854.91
2022-12-23T03:34:15.155Z,93865.22
2022-12-23T03:36:55.720Z,93821.16
2022-12-23T03:39:26.968Z,93853.41
2022-12-23T03:42:00.571Z,93878.38
2022-12-23T03:44:35.479Z,93863.97
2022-12-23T03:47:27.471Z,93842.63
2022-12-23T03:50:02.746Z,93892.84
2022-12-23T03:52:36.710Z,93852.13
2022-12-23T03:55:07.222Z,93910.22
2022-12-23T03:58:02.132Z,93920.38
2022-12-23T04:00:33.998Z,93862.16
2022-12-23T04:03:11.557Z,93888.81
2022-12-23T04:05:41.637Z,93854.81
2022-12-23T04:08:26.708Z,93854.53
2022-12-23T04:10:53.592Z,93842.13
2022-12-23T04:13:20.485Z,93892.31
2022-12-23T04:15:47.729Z,93896.91
2022-12-23T04:18:16.316Z,93899.97
2022-12-23T04:20:43.084Z,93902.50
2022-12-23T04:23:09.872Z,93918.16
2022-12-23T04:25:36.802Z,93870.19
2022-12-23T04:28:03.694Z,93886.75
2022-12-23T04:30:34.331Z,93912.53
2022-12-23T04:33:02.037Z,93910.41
2022-12-23T04:35:30.228Z,93891.97
2022-12-23T04:37:57.403Z,93893.16
2022-12-23T04:40:24.133Z,93929.09
2022-12-23T04:42:50.854Z,93916.63
2022-12-23T04:45:17.584Z,93893.28
2022-12-23T04:47:44.562Z,93914.09
2022-12-23T04:50:15.555Z,93907.94
2022-12-23T04:52:43.574Z,93915.03
2022-12-23T04:55:11.238Z,93931.78
2022-12-23T04:57:38.013Z,93907.44
2022-12-23T05:00:06.104Z,93957.28
2022-12-23T05:02:33.024Z,93953.63
2022-12-23T05:04:59.849Z,93941.16
2022-12-23T05:07:26.558Z,93923.75
2022-12-23T05:09:53.302Z,93928.28
2022-12-23T05:12:20.074Z,93934.13
2022-12-23T05:14:47.283Z,93946.50
2022-12-23T05:17:13.974Z,93914.75
2022-12-23T05:19:41.458Z,93928.56
2022-12-23T05:22:08.277Z,93937.97
2022-12-23T05:24:34.990Z,93914.88
2022-12-23T05:27:01.704Z,93933.84
2022-12-23T05:29:28.529Z,93947.22
2022-12-23T05:31:55.590Z,93985.16
2022-12-23T05:34:22.697Z,93951.84
2022-12-23T05:36:49.696Z,93996.31
2022-12-23T05:39:16.506Z,93948.28
2022-12-23T05:41:43.255Z,93945.34
2022-12-23T05:44:10.528Z,93971.81
2022-12-23T05:46:37.361Z,93972.63
2022-12-23T05:49:04.159Z,93927.28
2022-12-23T05:51:31.315Z,93976.69
2022-12-23T05:53:58.025Z,93967.59
2022-12-23T05:56:24.894Z,93976.63
2022-12-23T05:58:51.575Z,93964.19
2022-12-23T06:01:18.668Z,94012.50
2022-12-23T06:03:45.526Z,93993.63
2022-12-23T06:06:12.889Z,94010.66
2022-12-23T06:08:39.660Z,93955.41
2022-12-23T06:11:07.011Z,93988.16
2022-12-23T06:13:33.814Z,93999.44
2022-12-23T06:16:00.536Z,94003.78
2022-12-23T06:18:27.420Z,94015.00
2022-12-23T06:20:54.177Z,94020.19
2022-12-23T06:23:21.243Z,93967.22
2022-12-23T06:25:47.975Z,94009.97
2022-12-23T06:28:14.988Z,94053.88
2022-12-23T06:30:42.133Z,94048.75
2022-12-23T06:33:10.087Z,94018.25
2022-12-23T06:35:36.830Z,94050.06
2022-12-23T06:38:07.504Z,94033.44
2022-12-23T06:40:37.366Z,94037.84
2022-12-23T06:43:04.123Z,94019.22
2022-12-23T06:45:31.203Z,94035.25
2022-12-23T06:47:58.328Z,94034.59
2022-12-23T06:50:25.120Z,94036.47
2022-12-23T06:52:51.984Z,94031.47
2022-12-23T06:55:18.697Z,94041.31
2022-12-23T06:57:45.915Z,94070.16
2022-12-23T07:00:13.559Z,94056.22
2022-12-23T07:02:40.371Z,94044.91
2022-12-23T07:05:07.891Z,94059.00
2022-12-23T07:07:34.664Z,94096.22
2022-12-23T07:10:02.106Z,94032.16
2022-12-23T07:12:28.879Z,94111.03
2022-12-23T07:14:55.629Z,94111.00
2022-12-23T07:17:23.041Z,94066.31
2022-12-23T07:19:49.796Z,94117.34
2022-12-23T07:22:17.191Z,94079.06
2022-12-23T07:24:43.960Z,94062.41
2022-12-23T07:27:10.705Z,94061.88
2022-12-23T07:29:37.615Z,94080.31
2022-12-23T07:32:04.721Z,94097.69
2022-12-23T07:34:32.100Z,94063.19
2022-12-23T07:36:59.106Z,94073.09
2022-12-23T07:39:25.842Z,94069.31
2022-12-23T07:42:09.105Z,94043.16
2022-12-23T07:44:39.291Z,94095.00
2022-12-23T07:47:06.134Z,94094.84
2022-12-23T07:49:32.821Z,94042.63
2022-12-23T07:51:59.586Z,94098.69
2022-12-23T07:54:26.625Z,94075.59
2022-12-23T07:56:53.460Z,94082.50
2022-12-23T07:59:20.215Z,94092.00
2022-12-23T08:01:47.829Z,94124.69
2022-12-23T08:04:14.630Z,94102.88
2022-12-23T08:06:41.816Z,94085.94
2022-12-23T08:09:09.570Z,94054.19
2022-12-23T08:11:36.505Z,94103.19
2022-12-23T08:14:03.213Z,94147.19
2022-12-23T08:16:30.186Z,94102.63
2022-12-23T08:18:57.005Z,94101.78
2022-12-23T08:21:23.735Z,94126.16
2022-12-23T08:23:51.598Z,94146.81
2022-12-23T08:26:21.788Z,94103.53
2022-12-23T08:28:50.079Z,94159.31
2022-12-23T08:31:18.953Z,94079.59
2022-12-23T08:33:49.364Z,94096.28
2022-12-23T08:36:22.802Z,94113.63
2022-12-23T08:38:52.164Z,94113.75
2022-12-23T08:41:25.744Z,94138.22
2022-12-23T08:43:53.581Z,94083.91
2022-12-23T08:46:21.168Z,94133.16
2022-12-23T08:48:49.736Z,94094.50
2022-12-23T08:51:18.570Z,94112.28
2022-12-23T08:53:46.715Z,94090.94
2022-12-23T08:56:19.861Z,94113.75
2022-12-23T08:58:48.407Z,94097.13
2022-12-23T09:01:18.376Z,94110.56
2022-12-23T09:03:46.573Z,94120.31
2022-12-23T09:06:20.684Z,94156.78
2022-12-23T09:08:50.306Z,94092.16
2022-12-23T09:11:20.560Z,94175.84
2022-12-23T09:13:48.931Z,94168.72
2022-12-23T09:16:17.852Z,94150.28
2022-12-23T09:18:45.513Z,94165.50
2022-12-23T09:21:16.028Z,94148.50
2022-12-23T09:23:43.176Z,94157.88
2022-12-23T09:26:16.908Z,94149.91
2022-12-23T09:28:44.087Z,94096.41
2022-12-23T09:31:12.871Z,94154.03
2022-12-23T09:33:39.812Z,94080.41
2022-12-23T09:36:07.470Z,94165.25
2022-12-23T09:38:34.527Z,94152.44
2022-12-23T09:41:04.073Z,94161.16
2022-12-23T09:44:09.235Z,94156.63
2022-12-23T09:46:44.215Z,94156.38
2022-12-23T09:49:18.713Z,94132.34
2022-12-23T09:51:48.038Z,94172.03
2022-12-23T09:54:22.726Z,94171.59
2022-12-23T09:56:52.486Z,94134.09
2022-12-23T09:59:48.187Z,94166.31
2022-12-23T10:02:30.923Z,94112.78
2022-12-23T10:05:24.424Z,94118.50
2022-12-23T10:08:09.991Z,94127.28
2022-12-23T10:10:43.386Z,94158.53
2022-12-23T10:13:44.518Z,94116.53
2022-12-23T10:16:21.450Z,94105.47
2022-12-23T10:19:23.842Z,94142.81
2022-12-23T10:21:55.222Z,94114.25
2022-12-23T10:24:38.957Z,94157.81
2022-12-23T10:27:31.521Z,94122.84
2022-12-23T10:30:26.369Z,94132.19
2022-12-23T10:33:12.043Z,94135.81
2022-12-23T10:35:43.336Z,94125.53
2022-12-23T10:38:27.567Z,94102.72
2022-12-23T10:41:10.608Z,94140.47
2022-12-23T10:43:55.548Z,94125.84
2022-12-23T10:46:50.631Z,94104.34
2022-12-23T10:49:56.009Z,94090.97
2022-12-23T10:52:27.593Z,94082.91
2022-12-23T10:54:54.616Z,94133.22
2022-12-23T10:57:21.455Z,94091.13
2022-12-23T10:59:49.363Z,94097.22
2022-12-23T11:02:55.326Z,94105.34
2022-12-23T11:05:27.763Z,94125.69
2022-12-23T11:07:55.658Z,94138.13
2022-12-23T11:10:28.834Z,94103.50
2022-12-23T11:12:55.529Z,94101.69
2022-12-23T11:15:34.970Z,94106.31
2022-12-23T11:18:19.300Z,94075.88
2022-12-23T11:21:02.836Z,94076.03
2022-12-23T11:23:36.752Z,94083.72
2022-12-23T11:26:07.775Z,94122.16
2022-12-23T11:28:37.594Z,94101.16
2022-12-23T11:31:09.741Z,94122.22
2022-12-23T11:33:40.429Z,94116.78
2022-12-23T11:36:19.267Z,94074.69
2022-12-23T11:39:10.415Z,94091.84
2022-12-23T11:41:49.258Z,94087.16
2022-12-23T11:44:38.131Z,94085.63
2022-12-23T11:47:23.186Z,94065.72
2022-12-23T11:49:55.261Z,94074.75
2022-12-23T11:52:24.230Z,94072.84
2022-12-23T11:54:54.986Z,94020.75
2022-12-23T11:57:30.731Z,94105.91
2022-12-23T12:00:05.559Z,94061.53
2022-12-23T12:02:40.742Z,94087.75
2022-12-23T12:05:23.028Z,94049.91
2022-12-23T12:07:51.667Z,94048.63
2022-12-23T12:10:27.186Z,94055.41
2022-12-23T12:12:56.943Z,94072.69
2022-12-23T12:15:46.847Z,94019.47
2022-12-23T12:18:17.291Z,94029.34
2022-12-23T12:20:53.218Z,94040.00
2022-12-23T12:23:30.085Z,94086.13
2022-12-23T12:26:02.940Z,94038.84
2022-12-23T12:28:42.379Z,94005.03
2022-12-23T12:31:42.780Z,94030.16
2022-12-23T12:34:27.746Z,94042.41
2022-12-23T12:37:09.310Z,94017.16
2022-12-23T12:39:45.185Z,94036.38
2022-12-23T12:42:20.893Z,94014.31
2022-12-23T12:45:45.183Z,94032.63
2022-12-23T12:48:25.904Z,94023.84
2022-12-23T12:51:11.592Z,94059.50
2022-12-23T12:53:44.757Z,94051.31
2022-12-23T12:56:22.727Z,94054.41
2022-12-23T12:58:49.882Z,94056.47
2022-12-23T13:01:48.657Z,94060.72
2022-12-23T13:04:25.536Z,94020.09
2022-12-23T13:07:29.456Z,94040.25
2022-12-23T13:10:03.560Z,94027.78
2022-12-23T13:12:36.328Z,93973.31
2022-12-23T13:15:29.696Z,94008.66
2022-12-23T13:18:05.831Z,94047.78
2022-12-23T13:20:41.134Z,94007.06
2022-12-23T13:23:45.018Z,94002.56
2022-12-23T13:26:26.724Z,94049.06
2022-12-23T13:28:56.481Z,94045.69
2022-12-23T13:31:54.214Z,94011.41
2022-12-23T13:34:45.614Z,94011.38
2022-12-23T13:37:43.579Z,93973.88
2022-12-23T13:40:29.457Z,93949.19
2022-12-23T13:43:09.640Z,93972.38
2022-12-23T13:45:39.995Z,94010.59
2022-12-23T13:48:36.956Z,94023.97
2022-12-23T13:51:06.751Z,93981.91
2022-12-23T13:54:22.109Z,93938.53
2022-12-23T13:57:01.802Z,94000.84
2022-12-23T13:59:42.592Z,94017.19
2022-12-23T14:02:36.976Z,94015.28
2022-12-23T14:05:34.021Z,94004.59
2022-12-23T14:08:08.181Z,94029.84
2022-12-23T14:10:35.932Z,93994.59
2022-12-23T14:13:08.797Z,94012.72
2022-12-23T14:15:53.202Z,93926.53
2022-12-23T14:18:43.067Z,93932.97
2022-12-23T14:21:20.660Z,93997.50
2022-12-23T14:24:06.108Z,93957.19
2022-12-23T14:27:09.680Z,94015.88
2022-12-23T14:30:22.045Z,94005.25
2022-12-23T14:32:52.436Z,93967.25
2022-12-23T14:35:21.961Z,93975.22
2022-12-23T14:38:17.253Z,93955.44
2022-12-23T14:40:48.599Z,94011.56
2022-12-23T14:43:47.505Z,93962.41
2022-12-23T14:46:37.295Z,93966.13
2022-12-23T14:49:36.828Z,93987.50
2022-12-23T14:51:51.286Z,93992.97
2022-12-23T14:54:36.977Z,93939.19
2022-12-23T14:57:18.404Z,93935.22
2022-12-23T14:59:51.460Z,93940.09
2022-12-23T15:02:18.682Z,93961.75
2022-12-23T15:04:53.880Z,93928.44
2022-12-23T15:07:42.096Z,93932.97
2022-12-23T15:10:26.747Z,93932.09
2022-12-23T15:12:57.467Z,93872.91
2022-12-23T15:15:27.424Z,93929.72
2022-12-23T15:18:12.213Z,93926.63
2022-12-23T15:20:39.601Z,93934.53
2022-12-23T15:23:17.751Z,93903.38
2022-12-23T15:25:47.728Z,93929.38
2022-12-23T15:28:21.841Z,93947.47
2022-12-23T15:30:55.371Z,93912.06
2022-12-23T15:34:01.698Z,93960.53
2022-12-23T15:36:15.158Z,93958.66
2022-12-23T15:38:42.601Z,93936.94
2022-12-23T15:41:19.892Z,93898.59
2022-12-23T15:43:46.809Z,93940.41
2022-12-23T15:46:28.646Z,93955.63
2022-12-23T15:48:57.649Z,93938.25
2022-12-23T15:52:05.638Z,93882.16
2022-12-23T15:54:35.179Z,93940.03
2022-12-23T15:57:04.343Z,93959.25
2022-12-23T15:59:38.375Z,93912.16
2022-12-23T16:05:08.956Z,93958.94
2022-12-23T16:07:41.721Z,93891.50
2022-12-23T16:10:19.310Z,93909.66
2022-12-23T16:12:50.236Z,93973.75
2022-12-23T16:15:28.418Z,93928.00
2022-12-23T16:18:33.462Z,93898.69
2022-12-23T16:21:06.372Z,93926.09
2022-12-23T16:23:37.074Z,93945.06
2022-12-23T16:26:05.151Z,93977.69
2022-12-23T16:28:52.709Z,93939.00
2022-12-23T16:31:21.309Z,93930.84
2022-12-23T16:33:54.508Z,93987.75
2022-12-23T16:36:28.221Z,93936.22
2022-12-23T16:39:14.991Z,93953.06
2022-12-23T16:41:41.969Z,93926.03
2022-12-23T16:44:09.296Z,93933.72
2022-12-23T16:46:39.409Z,93962.78
2022-12-23T16:49:11.067Z,93958.41
2022-12-23T16:51:39.691Z,93942.06
2022-12-23T16:54:14.080Z,93902.38
2022-12-23T16:56:41.041Z,93958.50
2022-12-23T16:59:08.193Z,93943.50
2022-12-23T17:01:42.326Z,93962.63
2022-12-23T17:04:09.400Z,93921.63
2022-12-23T17:06:37.394Z,93912.59
2022-12-23T17:09:07.958Z,93924.75
2022-12-23T17:11:45.922Z,93980.72
2022-12-23T17:14:24.031Z,93925.19
2022-12-23T17:16:51.796Z,93924.41
2022-12-23T17:19:27.287Z,93965.50
2022-12-23T17:22:01.213Z,93942.75
2022-12-23T17:24:29.093Z,93964.78
2022-12-23T17:26:59.941Z,93958.66
2022-12-23T17:29:27.577Z,93906.03
2022-12-23T17:31:54.772Z,93958.16
2022-12-23T17:34:24.296Z,93941.34
2022-12-23T17:36:51.581Z,93976.59
2022-12-23T17:39:22.209Z,93951.81
2022-12-23T17:41:51.133Z,93987.41
2022-12-23T17:44:19.912Z,93960.31
2022-12-23T17:46:47.366Z,93980.63
2022-12-23T17:49:14.875Z,93972.22
2022-12-23T17:51:42.814Z,93979.38
2022-12-23T17:54:22.145Z,93964.34
2022-12-23T17:56:51.177Z,93947.53
2022-12-23T17:59:18.074Z,93945.78
2022-12-23T18:01:45.196Z,93927.50
2022-12-23T18:04:12.093Z,93922.97
2022-12-23T18:06:39.167Z,93953.34
2022-12-23T18:09:07.102Z,93946.44
2022-12-23T18:11:41.971Z,93949.34
2022-12-23T18:14:24.600Z,93934.78
2022-12-23T18:16:51.396Z,93946.06
2022-12-23T18:19:21.282Z,93927.59
2022-12-23T18:21:48.164Z,93921.81
2022-12-23T18:24:15.217Z,93950.50
2022-12-23T18:26:42.032Z,93939.13
2022-12-23T18:29:08.848Z,93947.91
2022-12-23T18:31:46.815Z,93904.44
2022-12-23T18:34:17.878Z,93916.97
2022-12-23T18:36:45.627Z,93917.53
2022-12-23T18:39:12.573Z,93939.81
2022-12-23T18:41:40.709Z,93941.03
2022-12-23T18:44:17.385Z,93915.81
2022-12-23T18:46:44.538Z,93913.69
2022-12-23T18:49:11.327Z,93921.13
2022-12-23T18:51:38.271Z,93955.91
2022-12-23T18:54:05.453Z,93944.59
2022-12-23T18:56:32.199Z,93938.28
2022-12-23T18:58:58.903Z,93939.75
2022-12-23T19:01:25.716Z,93919.19
2022-12-23T19:03:53.008Z,93933.38
2022-12-23T19:06:20.289Z,93927.31
2022-12-23T19:08:47.032Z,93931.91
2022-12-23T19:11:16.973Z,93912.59
2022-12-23T19:13:44.747Z,93908.94
2022-12-23T19:16:20.457Z,93921.19
2022-12-23T19:18:49.290Z,93929.97
2022-12-23T19:21:17.585Z,93938.25
2022-12-23T19:23:45.041Z,93952.34
2022-12-23T19:26:14.051Z,93909.97
2022-12-23T19:28:41.747Z,93906.72
2022-12-23T19:31:13.635Z,93940.22
2022-12-23T19:33:42.448Z,93877.41
2022-12-23T19:36:10.856Z,93926.47
2022-12-23T19:38:38.472Z,93916.22
2022-12-23T19:41:07.268Z,93936.75
2022-12-23T19:43:35.642Z,93947.78
2022-12-23T19:46:07.305Z,93945.34
2022-12-23T19:48:34.522Z,93946.69
2022-12-23T19:51:05.801Z,93936.84
2022-12-23T19:53:33.272Z,93917.53
2022-12-23T19:56:23.013Z,93921.69
2022-12-23T19:58:49.980Z,93951.06
2022-12-23T20:01:18.443Z,93942.66
2022-12-23T20:03:47.133Z,93968.88
2022-12-23T20:06:23.301Z,93972.66
2022-12-23T20:08:53.708Z,93988.19
2022-12-23T20:11:26.192Z,93965.66
2022-12-23T20:13:53.864Z,93977.03
2022-12-23T20:16:22.365Z,93991.47
2022-12-23T20:18:49.812Z,93969.31
2022-12-23T20:21:17.251Z,93948.38
2022-12-23T20:23:44.276Z,93995.63
2022-12-23T20:26:16.442Z,94017.31
2022-12-23T20:28:43.796Z,94008.22
2022-12-23T20:31:22.644Z,93997.19
2022-12-23T20:33:51.281Z,93999.34
2022-12-23T20:36:22.507Z,94013.03
2022-12-23T20:38:51.662Z,94038.72
2022-12-23T20:41:23.297Z,94018.25
2022-12-23T20:44:23.400Z,93991.59
2022-12-23T20:46:37.689Z,94021.66
2022-12-23T20:49:04.425Z,94011.88
2022-12-23T20:51:31.278Z,94022.78
2022-12-23T20:54:01.450Z,94006.91
2022-12-23T20:56:30.797Z,94035.09
2022-12-23T20:58:59.278Z,94050.69
2022-12-23T21:01:32.104Z,94039.47
2022-12-23T21:04:02.477Z,94041.31
2022-12-23T21:06:31.022Z,94041.16
2022-12-23T21:08:59.968Z,94057.63
2022-12-23T21:11:32.389Z,94040.59
2022-12-23T21:14:06.285Z,94036.38
2022-12-23T21:16:35.986Z,94014.41
2022-12-23T21:19:04.242Z,93974.97
2022-12-23T21:21:31.960Z,94017.66
2022-12-23T21:24:01.442Z,94071.50
2022-12-23T21:26:30.085Z,94002.47
2022-12-23T21:28:59.664Z,94029.84
2022-12-23T21:31:28.154Z,94029.75
2022-12-23T21:33:55.896Z,94071.03
2022-12-23T21:36:26.464Z,94033.88
2022-12-23T21:38:54.117Z,94073.03
2022-12-23T21:41:25.014Z,94053.81
2022-12-23T21:43:52.971Z,94097.63
2022-12-23T21:46:22.962Z,94113.41
2022-12-23T21:48:50.335Z,94101.41
2022-12-23T21:51:36.670Z,94133.44
2022-12-23T21:54:06.306Z,94057.91
2022-12-23T21:56:33.662Z,94119.28
2022-12-23T21:59:10.864Z,94100.59
2022-12-23T22:01:38.588Z,94108.72
2022-12-23T22:04:05.465Z,94123.44
2022-12-23T22:06:37.981Z,94153.94
2022-12-23T22:09:07.599Z,94148.84
2022-12-23T22:11:37.293Z,94116.19
2022-12-23T22:14:07.468Z,94128.69
2022-12-23T22:16:36.080Z,94132.97
2022-12-23T22:19:04.564Z,94119.72
2022-12-23T22:21:32.982Z,94108.72
2022-12-23T22:24:00.047Z,94115.22
2022-12-23T22:26:30.840Z,94125.28
2022-12-23T22:29:00.766Z,94131.59
2022-12-23T22:31:30.865Z,94114.75
2022-12-23T22:33:57.916Z,94124.84
2022-12-23T22:36:24.986Z,94135.34
2022-12-23T22:38:53.826Z,94110.38
2022-12-23T22:41:21.156Z,94136.00
2022-12-23T22:43:48.161Z,94093.22
2022-12-23T22:46:15.571Z,94117.03
2022-12-23T22:48:42.719Z,94116.53
2022-12-23T22:51:21.708Z,94124.69
2022-12-23T22:53:49.114Z,94163.66
2022-12-23T22:56:17.494Z,94151.56
2022-12-23T22:58:44.351Z,94097.69
2022-12-23T23:01:27.552Z,94139.03
2022-12-23T23:03:59.520Z,94104.78
2022-12-23T23:06:29.218Z,94108.75
2022-12-23T23:08:57.094Z,94148.13
2022-12-23T23:11:25.589Z,94146.31
2022-12-23T23:13:53.021Z,94103.28
2022-12-23T23:16:20.740Z,94159.88
2022-12-23T23:18:48.145Z,94158.56
2022-12-23T23:21:15.302Z,94138.25
2022-12-23T23:23:42.101Z,94167.25
2022-12-23T23:26:10.335Z,94159.22
2022-12-23T23:28:39.738Z,94181.06
2022-12-23T23:33:55.478Z,94187.44
2022-12-23T23:36:22.192Z,94165.88
2022-12-23T23:38:49.130Z,94186.59
2022-12-23T23:41:20.712Z,94177.50
2022-12-23T23:43:50.056Z,94171.75
2022-12-23T23:46:16.909Z,94204.34
2022-12-23T23:48:43.716Z,94190.75
2022-12-23T23:51:10.671Z,94200.97
2022-12-23T23:53:37.393Z,94201.47
2022-12-23T23:56:07.061Z,94175.81
2022-12-23T23:58:34.878Z,94183.13
